createdAt,value
2023-04-01T00:01:29.055Z,5.55
2023-04-01T00:03:57.193Z,5.25
2023-04-01T00:06:24.630Z,5.32
2023-04-01T00:08:51.403Z,5.75
2023-04-01T00:11:20.589Z,5.20
2023-04-01T00:13:48.222Z,5.50
2023-04-01T00:16:20.968Z,4.82
2023-04-01T00:18:49.954Z,5.13
2023-04-01T00:21:19.467Z,5.32
2023-04-01T00:23:46.161Z,5.60
2023-04-01T00:26:13.380Z,5.57
2023-04-01T00:28:41.252Z,5.53
2023-04-01T00:31:09.610Z,5.88
2023-04-01T00:33:36.737Z,5.93
2023-04-01T00:36:23.755Z,6.20
2023-04-01T00:38:51.420Z,5.97
2023-04-01T00:41:19.762Z,6.30
2023-04-01T00:43:49.217Z,6.40
2023-04-01T00:46:16.268Z,6.22
2023-04-01T00:48:56.428Z,6.90
2023-04-01T00:51:26.674Z,6.50
2023-04-01T00:53:56.066Z,6.72
2023-04-01T00:56:34.599Z,6.75
2023-04-01T00:59:09.371Z,5.78
2023-04-01T01:01:37.696Z,6.65
2023-04-01T01:04:05.177Z,7.10
2023-04-01T01:06:59.250Z,7.10
2023-04-01T01:09:29.465Z,6.95
2023-04-01T01:12:20.539Z,6.72
2023-04-01T01:15:06.390Z,7.47
2023-04-01T01:17:53.247Z,7.00
2023-04-01T01:20:41.644Z,6.88
2023-04-01T01:23:40.153Z,7.45
2023-04-01T01:26:27.293Z,7.13
2023-04-01T01:29:10.062Z,7.43
2023-04-01T01:31:51.698Z,7.05
2023-04-01T01:34:37.397Z,7.78
2023-04-01T01:37:12.244Z,7.35
2023-04-01T01:39:40.528Z,7.32
2023-04-01T01:42:11.189Z,7.82
2023-04-01T01:44:39.365Z,7.72
2023-04-01T01:47:06.738Z,7.10
2023-04-01T01:49:35.196Z,7.88
2023-04-01T01:52:02.113Z,7.38
2023-04-01T01:54:28.765Z,7.97
2023-04-01T01:57:11.067Z,8.25
2023-04-01T01:59:40.952Z,7.53
2023-04-01T02:02:09.613Z,7.20
2023-04-01T02:04:40.464Z,7.32
2023-04-01T02:07:18.628Z,8.20
2023-04-01T02:09:45.561Z,7.32
2023-04-01T02:12:16.214Z,7.65
2023-04-01T02:14:55.329Z,7.25
2023-04-01T02:17:25.232Z,7.30
2023-04-01T02:20:00.258Z,7.65
2023-04-01T02:22:30.246Z,7.25
2023-04-01T02:25:04.656Z,7.55
2023-04-01T02:27:31.958Z,7.10
2023-04-01T02:29:59.209Z,7.93
2023-04-01T02:32:27.943Z,7.43
2023-04-01T02:34:54.875Z,7.65
2023-04-01T02:37:21.884Z,6.95
2023-04-01T02:39:49.244Z,7.57
2023-04-01T02:42:16.138Z,7.32
2023-04-01T02:44:42.738Z,8.30
2023-04-01T02:47:09.518Z,6.85
2023-04-01T02:49:36.223Z,6.82
2023-04-01T02:52:03.697Z,6.97
2023-04-01T02:54:32.817Z,7.40
2023-04-01T02:56:59.454Z,7.18
2023-04-01T02:59:26.055Z,7.28
2023-04-01T03:01:52.741Z,6.82
2023-04-01T03:04:19.333Z,6.78
2023-04-01T03:06:46.252Z,6.90
2023-04-01T03:09:12.929Z,7.60
2023-04-01T03:11:39.674Z,7.03
2023-04-01T03:14:06.255Z,7.40
2023-04-01T03:16:32.870Z,7.65
2023-04-01T03:19:00.810Z,7.60
2023-04-01T03:21:27.361Z,8.07
2023-04-01T03:23:54.976Z,7.95
2023-04-01T03:26:22.555Z,7.85
2023-04-01T03:28:49.397Z,7.90
2023-04-01T03:31:17.210Z,7.63
2023-04-01T03:33:43.955Z,8.02
2023-04-01T03:36:12.661Z,7.03
2023-04-01T03:38:41.025Z,7.18
2023-04-01T03:41:07.844Z,7.22
2023-04-01T03:43:34.550Z,6.68
2023-04-01T03:46:01.300Z,7.20
2023-04-01T03:48:28.025Z,7.35
2023-04-01T03:50:54.786Z,7.03
2023-04-01T03:53:22.188Z,6.85
2023-04-01T03:55:48.809Z,7.50
2023-04-01T03:58:15.588Z,7.10
2023-04-01T04:00:44.070Z,7.15
2023-04-01T04:03:10.893Z,6.85
2023-04-01T04:05:37.628Z,6.35
2023-04-01T04:08:05.197Z,7.35
2023-04-01T04:10:31.766Z,7.18
2023-04-01T04:12:58.301Z,7.43
2023-04-01T04:15:27.650Z,7.68
2023-04-01T04:17:54.291Z,7.57
2023-04-01T04:20:20.942Z,7.53
2023-04-01T04:22:48.871Z,7.60
2023-04-01T04:25:15.858Z,8.88
2023-04-01T04:27:42.658Z,11.35
2023-04-01T04:30:10.155Z,10.48
2023-04-01T04:32:37.071Z,9.23
2023-04-01T04:35:04.191Z,9.52
2023-04-01T04:37:30.826Z,9.05
2023-04-01T04:39:57.416Z,8.63
2023-04-01T04:42:24.008Z,7.93
2023-04-01T04:44:51.172Z,8.05
2023-04-01T04:47:17.831Z,9.27
2023-04-01T04:49:44.451Z,9.38
2023-04-01T04:52:11.162Z,10.00
2023-04-01T04:54:37.716Z,10.98
2023-04-01T04:57:04.343Z,8.55
2023-04-01T04:59:32.191Z,8.73
2023-04-01T05:01:58.787Z,8.95
2023-04-01T05:04:25.383Z,9.98
2023-04-01T05:06:52.895Z,11.55
2023-04-01T05:09:19.589Z,11.88
2023-04-01T05:11:46.464Z,9.27
2023-04-01T05:14:16.304Z,9.82
2023-04-01T05:16:43.150Z,8.60
2023-04-01T05:19:09.873Z,7.93
2023-04-01T05:21:36.475Z,8.35
2023-04-01T05:24:03.132Z,10.30
2023-04-01T05:26:29.682Z,9.75
2023-04-01T05:28:56.294Z,12.40
2023-04-01T05:31:25.181Z,10.52
2023-04-01T05:33:51.998Z,7.65
2023-04-01T05:36:20.116Z,7.63
2023-04-01T05:38:47.467Z,9.63
2023-04-01T05:41:15.338Z,8.75
2023-04-01T05:43:44.007Z,8.35
2023-04-01T05:46:10.700Z,8.90
2023-04-01T05:48:37.393Z,11.35
2023-04-01T05:51:05.010Z,8.48
2023-04-01T05:53:33.427Z,8.50
2023-04-01T05:56:04.643Z,7.55
2023-04-01T05:58:32.250Z,6.95
2023-04-01T06:01:10.152Z,7.15
